sensor_id;sensor_type;location;lat;lon;timestamp;pressure;altitude;pressure_sealevel;temperature;humidity
46347;BME280;32057;47.830;19.046;2023-02-13T00:01:36;102436.75;;;-2.62;100.00
46347;BME280;32057;47.830;19.046;2023-02-13T00:04:02;102434.44;;;-2.68;100.00
46347;BME280;32057;47.830;19.046;2023-02-13T00:06:28;102427.56;;;-2.69;100.00
46347;BME280;32057;47.830;19.046;2023-02-13T00:08:54;102430.81;;;-2.70;100.00
46347;BME280;32057;47.830;19.046;2023-02-13T00:11:19;102433.56;;;-2.68;100.00
46347;BME280;32057;47.830;19.046;2023-02-13T00:13:45;102431.41;;;-2.72;100.00
46347;BME280;32057;47.830;19.046;2023-02-13T00:16:10;102429.53;;;-2.82;100.00
46347;BME280;32057;47.830;19.046;2023-02-13T00:18:36;102431.34;;;-2.81;100.00
46347;BME280;32057;47.830;19.046;2023-02-13T00:21:08;102433.31;;;-2.78;100.00
46347;BME280;32057;47.830;19.046;2023-02-13T00:23:34;102430.94;;;-2.77;100.00
46347;BME280;32057;47.830;19.046;2023-02-13T00:26:06;102429.94;;;-2.70;100.00
46347;BME280;32057;47.830;19.046;2023-02-13T00:28:32;102427.97;;;-2.73;100.00
46347;BME280;32057;47.830;19.046;2023-02-13T00:31:06;102428.38;;;-2.77;100.00
46347;BME280;32057;47.830;19.046;2023-02-13T00:33:32;102424.13;;;-2.69;100.00
46347;BME280;32057;47.830;19.046;2023-02-13T00:36:09;102432.91;;;-2.74;100.00
46347;BME280;32057;47.830;19.046;2023-02-13T00:38:36;102430.50;;;-3.05;100.00
46347;BME280;32057;47.830;19.046;2023-02-13T00:41:02;102434.94;;;-3.11;100.00
46347;BME280;32057;47.830;19.046;2023-02-13T00:43:28;102443.28;;;-3.12;100.00
46347;BME280;32057;47.830;19.046;2023-02-13T00:45:54;102435.50;;;-3.13;100.00
46347;BME280;32057;47.830;19.046;2023-02-13T00:48:19;102440.34;;;-3.08;100.00
46347;BME280;32057;47.830;19.046;2023-02-13T00:50:46;102439.56;;;-2.99;100.00
46347;BME280;32057;47.830;19.046;2023-02-13T00:53:12;102439.56;;;-2.99;100.00
46347;BME280;32057;47.830;19.046;2023-02-13T00:55:37;102438.84;;;-3.06;100.00
46347;BME280;32057;47.830;19.046;2023-02-13T00:58:03;102436.84;;;-3.01;100.00
46347;BME280;32057;47.830;19.046;2023-02-13T01:00:28;102439.22;;;-3.03;100.00
46347;BME280;32057;47.830;19.046;2023-02-13T01:02:54;102441.25;;;-3.07;100.00
46347;BME280;32057;47.830;19.046;2023-02-13T01:05:19;102449.13;;;-3.13;100.00
46347;BME280;32057;47.830;19.046;2023-02-13T01:07:44;102447.41;;;-3.21;100.00
46347;BME280;32057;47.830;19.046;2023-02-13T01:10:10;102453.63;;;-3.26;100.00
46347;BME280;32057;47.830;19.046;2023-02-13T01:12:36;102443.34;;;-3.35;100.00
46347;BME280;32057;47.830;19.046;2023-02-13T01:15:02;102445.94;;;-3.42;100.00
46347;BME280;32057;47.830;19.046;2023-02-13T01:17:28;102445.72;;;-3.36;100.00
46347;BME280;32057;47.830;19.046;2023-02-13T01:19:53;102444.00;;;-3.29;100.00
46347;BME280;32057;47.830;19.046;2023-02-13T01:22:19;102439.59;;;-3.23;100.00
46347;BME280;32057;47.830;19.046;2023-02-13T01:24:44;102433.38;;;-3.17;100.00
46347;BME280;32057;47.830;19.046;2023-02-13T01:27:09;102431.31;;;-3.13;100.00
46347;BME280;32057;47.830;19.046;2023-02-13T01:29:35;102427.13;;;-3.12;100.00
46347;BME280;32057;47.830;19.046;2023-02-13T01:32:00;102427.53;;;-3.16;100.00
46347;BME280;32057;47.830;19.046;2023-02-13T01:34:29;102423.50;;;-3.14;100.00
46347;BME280;32057;47.830;19.046;2023-02-13T01:36:55;102428.00;;;-3.12;100.00
46347;BME280;32057;47.830;19.046;2023-02-13T01:39:20;102425.81;;;-3.09;100.00
46347;BME280;32057;47.830;19.046;2023-02-13T01:41:46;102429.50;;;-3.14;100.00
46347;BME280;32057;47.830;19.046;2023-02-13T01:44:46;102436.59;;;-3.34;100.00
46347;BME280;32057;47.830;19.046;2023-02-13T01:47:15;102436.56;;;-3.50;100.00
46347;BME280;32057;47.830;19.046;2023-02-13T01:49:44;102438.75;;;-3.76;100.00
46347;BME280;32057;47.830;19.046;2023-02-13T01:52:11;102437.59;;;-3.94;100.00
46347;BME280;32057;47.830;19.046;2023-02-13T01:54:38;102435.13;;;-3.78;100.00
46347;BME280;32057;47.830;19.046;2023-02-13T01:57:14;102438.31;;;-3.65;100.00
46347;BME280;32057;47.830;19.046;2023-02-13T02:02:50;102434.75;;;-3.51;100.00
46347;BME280;32057;47.830;19.046;2023-02-13T02:05:17;102431.25;;;-3.45;100.00
46347;BME280;32057;47.830;19.046;2023-02-13T02:07:44;102430.09;;;-3.40;100.00
46347;BME280;32057;47.830;19.046;2023-02-13T02:10:15;102422.44;;;-3.40;100.00
46347;BME280;32057;47.830;19.046;2023-02-13T02:13:14;102418.25;;;-3.55;100.00
46347;BME280;32057;47.830;19.046;2023-02-13T02:15:40;102415.06;;;-3.68;100.00
46347;BME280;32057;47.830;19.046;2023-02-13T02:18:24;102409.97;;;-3.68;100.00
46347;BME280;32057;47.830;19.046;2023-02-13T02:26:47;102408.31;;;-3.68;100.00
46347;BME280;32057;47.830;19.046;2023-02-13T02:35:26;102410.38;;;-3.72;100.00
46347;BME280;32057;47.830;19.046;2023-02-13T02:38:16;102408.88;;;-3.63;100.00
46347;BME280;32057;47.830;19.046;2023-02-13T02:43:38;102406.06;;;-3.57;100.00
46347;BME280;32057;47.830;19.046;2023-02-13T02:46:26;102406.38;;;-3.70;100.00
46347;BME280;32057;47.830;19.046;2023-02-13T02:48:56;102392.91;;;-3.69;100.00
46347;BME280;32057;47.830;19.046;2023-02-13T02:51:56;102393.03;;;-3.61;100.00
46347;BME280;32057;47.830;19.046;2023-02-13T02:54:43;102394.94;;;-3.51;100.00
46347;BME280;32057;47.830;19.046;2023-02-13T02:57:29;102401.22;;;-3.63;100.00
46347;BME280;32057;47.830;19.046;2023-02-13T03:00:21;102404.38;;;-3.73;100.00
46347;BME280;32057;47.830;19.046;2023-02-13T03:03:15;102405.34;;;-3.80;100.00
46347;BME280;32057;47.830;19.046;2023-02-13T03:06:01;102409.66;;;-3.71;100.00
46347;BME280;32057;47.830;19.046;2023-02-13T03:08:52;102411.06;;;-3.66;100.00
46347;BME280;32057;47.830;19.046;2023-02-13T03:11:37;102411.84;;;-3.74;100.00
46347;BME280;32057;47.830;19.046;2023-02-13T03:14:23;102407.06;;;-3.87;100.00
46347;BME280;32057;47.830;19.046;2023-02-13T03:16:51;102403.88;;;-4.01;100.00
46347;BME280;32057;47.830;19.046;2023-02-13T03:20:00;102410.44;;;-4.10;100.00
46347;BME280;32057;47.830;19.046;2023-02-13T03:23:22;102421.53;;;-4.09;100.00
46347;BME280;32057;47.830;19.046;2023-02-13T03:34:12;102418.53;;;-3.98;100.00
46347;BME280;32057;47.830;19.046;2023-02-13T03:36:58;102414.34;;;-3.97;100.00
46347;BME280;32057;47.830;19.046;2023-02-13T03:42:27;102408.09;;;-4.08;100.00
46347;BME280;32057;47.830;19.046;2023-02-13T03:47:46;102412.00;;;-3.96;100.00
46347;BME280;32057;47.830;19.046;2023-02-13T03:50:14;102407.31;;;-4.00;100.00
46347;BME280;32057;47.830;19.046;2023-02-13T03:53:07;102402.22;;;-4.00;100.00
46347;BME280;32057;47.830;19.046;2023-02-13T03:55:37;102409.81;;;-3.93;100.00
46347;BME280;32057;47.830;19.046;2023-02-13T03:58:27;102407.25;;;-3.93;100.00
46347;BME280;32057;47.830;19.046;2023-02-13T04:01:14;102406.59;;;-3.99;100.00
46347;BME280;32057;47.830;19.046;2023-02-13T04:03:58;102406.66;;;-4.13;100.00
46347;BME280;32057;47.830;19.046;2023-02-13T04:06:29;102401.06;;;-4.18;100.00
46347;BME280;32057;47.830;19.046;2023-02-13T04:08:56;102395.38;;;-4.08;100.00
46347;BME280;32057;47.830;19.046;2023-02-13T04:11:31;102400.47;;;-4.08;100.00
46347;BME280;32057;47.830;19.046;2023-02-13T04:14:03;102398.31;;;-4.12;100.00
46347;BME280;32057;47.830;19.046;2023-02-13T04:16:36;102408.84;;;-4.09;100.00
46347;BME280;32057;47.830;19.046;2023-02-13T04:19:04;102404.28;;;-4.12;100.00
46347;BME280;32057;47.830;19.046;2023-02-13T04:21:34;102393.69;;;-4.31;100.00
46347;BME280;32057;47.830;19.046;2023-02-13T04:24:01;102394.31;;;-4.17;100.00
46347;BME280;32057;47.830;19.046;2023-02-13T04:26:32;102384.31;;;-4.09;100.00
46347;BME280;32057;47.830;19.046;2023-02-13T04:28:59;102376.78;;;-4.00;100.00
46347;BME280;32057;47.830;19.046;2023-02-13T04:31:24;102383.84;;;-3.97;100.00
46347;BME280;32057;47.830;19.046;2023-02-13T04:33:50;102375.94;;;-4.08;100.00
46347;BME280;32057;47.830;19.046;2023-02-13T04:36:15;102382.84;;;-4.07;100.00
46347;BME280;32057;47.830;19.046;2023-02-13T04:38:41;102384.09;;;-4.03;100.00
46347;BME280;32057;47.830;19.046;2023-02-13T04:41:06;102381.38;;;-4.05;100.00
46347;BME280;32057;47.830;19.046;2023-02-13T04:43:31;102387.19;;;-4.36;98.86
46347;BME280;32057;47.830;19.046;2023-02-13T04:45:57;102385.38;;;-4.37;100.00
46347;BME280;32057;47.830;19.046;2023-02-13T04:48:22;102384.00;;;-4.49;100.00
46347;BME280;32057;47.830;19.046;2023-02-13T04:50:48;102384.34;;;-4.46;100.00
46347;BME280;32057;47.830;19.046;2023-02-13T04:53:13;102378.94;;;-4.49;100.00
46347;BME280;32057;47.830;19.046;2023-02-13T04:55:38;102379.13;;;-4.55;100.00
46347;BME280;32057;47.830;19.046;2023-02-13T04:58:04;102382.16;;;-4.43;100.00
46347;BME280;32057;47.830;19.046;2023-02-13T05:00:29;102371.94;;;-4.36;100.00
46347;BME280;32057;47.830;19.046;2023-02-13T05:03:06;102366.13;;;-4.35;100.00
46347;BME280;32057;47.830;19.046;2023-02-13T05:05:31;102373.78;;;-4.42;100.00
46347;BME280;32057;47.830;19.046;2023-02-13T05:07:57;102371.31;;;-4.56;100.00
46347;BME280;32057;47.830;19.046;2023-02-13T05:10:22;102372.88;;;-4.73;100.00
46347;BME280;32057;47.830;19.046;2023-02-13T05:12:48;102373.56;;;-4.67;100.00
46347;BME280;32057;47.830;19.046;2023-02-13T05:15:13;102375.34;;;-4.66;100.00
46347;BME280;32057;47.830;19.046;2023-02-13T05:17:38;102372.44;;;-4.62;100.00
46347;BME280;32057;47.830;19.046;2023-02-13T05:20:05;102371.41;;;-4.71;100.00
46347;BME280;32057;47.830;19.046;2023-02-13T05:22:30;102374.44;;;-4.59;100.00
46347;BME280;32057;47.830;19.046;2023-02-13T05:25:14;102374.00;;;-4.48;100.00
46347;BME280;32057;47.830;19.046;2023-02-13T05:27:40;102378.47;;;-4.38;100.00
46347;BME280;32057;47.830;19.046;2023-02-13T05:30:06;102384.03;;;-4.56;100.00
46347;BME280;32057;47.830;19.046;2023-02-13T05:32:31;102384.81;;;-4.72;100.00
46347;BME280;32057;47.830;19.046;2023-02-13T05:34:57;102384.50;;;-4.89;100.00
46347;BME280;32057;47.830;19.046;2023-02-13T05:37:22;102380.53;;;-4.87;100.00
46347;BME280;32057;47.830;19.046;2023-02-13T05:39:47;102390.31;;;-4.83;100.00
46347;BME280;32057;47.830;19.046;2023-02-13T05:42:13;102385.25;;;-4.83;100.00
46347;BME280;32057;47.830;19.046;2023-02-13T05:44:38;102386.31;;;-4.81;100.00
46347;BME280;32057;47.830;19.046;2023-02-13T05:47:03;102391.91;;;-4.76;100.00
46347;BME280;32057;47.830;19.046;2023-02-13T05:49:29;102389.56;;;-4.75;100.00
46347;BME280;32057;47.830;19.046;2023-02-13T05:51:54;102390.47;;;-4.74;100.00
46347;BME280;32057;47.830;19.046;2023-02-13T05:54:20;102401.13;;;-4.63;100.00
46347;BME280;32057;47.830;19.046;2023-02-13T05:56:45;102400.81;;;-4.73;100.00
46347;BME280;32057;47.830;19.046;2023-02-13T05:59:11;102400.25;;;-4.70;100.00
46347;BME280;32057;47.830;19.046;2023-02-13T06:01:36;102399.66;;;-4.61;100.00
46347;BME280;32057;47.830;19.046;2023-02-13T06:04:02;102389.81;;;-4.50;100.00
46347;BME280;32057;47.830;19.046;2023-02-13T06:06:27;102399.25;;;-4.49;100.00
46347;BME280;32057;47.830;19.046;2023-02-13T06:08:53;102398.13;;;-4.44;100.00
46347;BME280;32057;47.830;19.046;2023-02-13T06:11:18;102398.47;;;-4.41;100.00
46347;BME280;32057;47.830;19.046;2023-02-13T06:13:44;102404.97;;;-4.36;100.00
46347;BME280;32057;47.830;19.046;2023-02-13T06:16:10;102407.81;;;-4.26;100.00
46347;BME280;32057;47.830;19.046;2023-02-13T06:18:36;102413.97;;;-4.24;100.00
46347;BME280;32057;47.830;19.046;2023-02-13T06:21:02;102411.69;;;-4.29;100.00
46347;BME280;32057;47.830;19.046;2023-02-13T06:23:28;102414.63;;;-4.41;100.00
46347;BME280;32057;47.830;19.046;2023-02-13T06:25:54;102413.88;;;-4.40;100.00
46347;BME280;32057;47.830;19.046;2023-02-13T06:28:19;102410.84;;;-4.14;100.00
46347;BME280;32057;47.830;19.046;2023-02-13T06:30:44;102415.06;;;-4.22;100.00
46347;BME280;32057;47.830;19.046;2023-02-13T06:33:10;102417.97;;;-4.26;100.00
46347;BME280;32057;47.830;19.046;2023-02-13T06:35:35;102424.69;;;-4.19;100.00
46347;BME280;32057;47.830;19.046;2023-02-13T06:38:01;102419.00;;;-4.09;100.00
46347;BME280;32057;47.830;19.046;2023-02-13T06:40:26;102414.22;;;-3.99;100.00
46347;BME280;32057;47.830;19.046;2023-02-13T06:42:52;102414.50;;;-3.89;100.00
46347;BME280;32057;47.830;19.046;2023-02-13T06:45:17;102415.19;;;-3.83;100.00
46347;BME280;32057;47.830;19.046;2023-02-13T06:47:44;102423.09;;;-3.72;100.00
46347;BME280;32057;47.830;19.046;2023-02-13T06:50:12;102427.38;;;-3.64;100.00
46347;BME280;32057;47.830;19.046;2023-02-13T06:52:38;102425.69;;;-3.56;100.00
46347;BME280;32057;47.830;19.046;2023-02-13T06:55:04;102424.91;;;-3.48;100.00
46347;BME280;32057;47.830;19.046;2023-02-13T06:57:30;102424.28;;;-3.38;100.00
46347;BME280;32057;47.830;19.046;2023-02-13T06:59:58;102424.53;;;-3.28;100.00
46347;BME280;32057;47.830;19.046;2023-02-13T07:02:23;102420.78;;;-3.16;100.00
46347;BME280;32057;47.830;19.046;2023-02-13T07:04:49;102414.88;;;-3.08;100.00
46347;BME280;32057;47.830;19.046;2023-02-13T07:07:14;102419.84;;;-2.93;100.00
46347;BME280;32057;47.830;19.046;2023-02-13T07:09:39;102415.88;;;-2.83;100.00
46347;BME280;32057;47.830;19.046;2023-02-13T07:12:05;102420.22;;;-2.66;100.00
46347;BME280;32057;47.830;19.046;2023-02-13T07:14:31;102420.91;;;-2.59;100.00
46347;BME280;32057;47.830;19.046;2023-02-13T07:16:56;102419.56;;;-2.56;100.00
46347;BME280;32057;47.830;19.046;2023-02-13T07:19:22;102418.47;;;-2.42;100.00
46347;BME280;32057;47.830;19.046;2023-02-13T07:21:47;102418.56;;;-2.33;100.00
46347;BME280;32057;47.830;19.046;2023-02-13T07:24:13;102415.94;;;-2.42;100.00
46347;BME280;32057;47.830;19.046;2023-02-13T07:26:38;102429.59;;;-2.42;100.00
46347;BME280;32057;47.830;19.046;2023-02-13T07:29:04;102422.22;;;-2.23;100.00
46347;BME280;32057;47.830;19.046;2023-02-13T07:31:34;102413.22;;;-2.03;100.00
46347;BME280;32057;47.830;19.046;2023-02-13T07:34:00;102415.88;;;-1.86;100.00
46347;BME280;32057;47.830;19.046;2023-02-13T07:36:26;102420.34;;;-1.67;100.00
46347;BME280;32057;47.830;19.046;2023-02-13T07:38:52;102412.75;;;-1.50;100.00
46347;BME280;32057;47.830;19.046;2023-02-13T07:41:17;102406.78;;;-1.33;100.00
46347;BME280;32057;47.830;19.046;2023-02-13T07:43:43;102406.84;;;-1.15;100.00
46347;BME280;32057;47.830;19.046;2023-02-13T07:46:09;102406.75;;;-0.99;100.00
46347;BME280;32057;47.830;19.046;2023-02-13T07:48:34;102415.03;;;-0.85;100.00
46347;BME280;32057;47.830;19.046;2023-02-13T07:51:02;102408.13;;;-0.68;100.00
46347;BME280;32057;47.830;19.046;2023-02-13T07:53:28;102410.25;;;-0.55;100.00
46347;BME280;32057;47.830;19.046;2023-02-13T07:55:53;102412.34;;;-0.43;100.00
46347;BME280;32057;47.830;19.046;2023-02-13T07:58:19;102413.09;;;-0.35;100.00
46347;BME280;32057;47.830;19.046;2023-02-13T08:00:45;102415.94;;;-0.23;100.00
46347;BME280;32057;47.830;19.046;2023-02-13T08:03:10;102412.63;;;-0.13;100.00
46347;BME280;32057;47.830;19.046;2023-02-13T08:05:36;102407.31;;;-0.06;100.00
46347;BME280;32057;47.830;19.046;2023-02-13T08:08:03;102407.19;;;0.01;100.00
46347;BME280;32057;47.830;19.046;2023-02-13T08:10:28;102410.78;;;0.03;100.00
46347;BME280;32057;47.830;19.046;2023-02-13T08:13:13;102410.44;;;0.17;100.00
46347;BME280;32057;47.830;19.046;2023-02-13T08:15:39;102397.47;;;0.25;100.00
46347;BME280;32057;47.830;19.046;2023-02-13T08:18:04;102399.53;;;0.37;100.00
46347;BME280;32057;47.830;19.046;2023-02-13T08:20:30;102392.09;;;0.49;100.00
46347;BME280;32057;47.830;19.046;2023-02-13T08:23:06;102392.19;;;0.59;100.00
46347;BME280;32057;47.830;19.046;2023-02-13T08:25:32;102393.34;;;0.72;100.00
46347;BME280;32057;47.830;19.046;2023-02-13T08:27:59;102389.38;;;0.84;100.00
46347;BME280;32057;47.830;19.046;2023-02-13T08:30:25;102397.16;;;0.94;100.00
46347;BME280;32057;47.830;19.046;2023-02-13T08:32:50;102386.22;;;1.06;100.00
46347;BME280;32057;47.830;19.046;2023-02-13T08:35:16;102390.09;;;1.11;99.08
46347;BME280;32057;47.830;19.046;2023-02-13T08:37:41;102386.75;;;0.93;97.41
46347;BME280;32057;47.830;19.046;2023-02-13T08:40:07;102391.00;;;0.92;98.63
46347;BME280;32057;47.830;19.046;2023-02-13T08:42:37;102391.63;;;1.09;100.00
46347;BME280;32057;47.830;19.046;2023-02-13T08:45:03;102381.66;;;1.31;100.00
46347;BME280;32057;47.830;19.046;2023-02-13T08:47:30;102375.75;;;1.51;100.00
46347;BME280;32057;47.830;19.046;2023-02-13T08:49:55;102378.19;;;1.68;100.00
46347;BME280;32057;47.830;19.046;2023-02-13T08:52:21;102387.22;;;1.84;100.00
46347;BME280;32057;47.830;19.046;2023-02-13T08:54:46;102383.03;;;1.94;100.00
46347;BME280;32057;47.830;19.046;2023-02-13T08:57:12;102376.41;;;2.07;100.00
46347;BME280;32057;47.830;19.046;2023-02-13T08:59:37;102375.56;;;2.16;100.00
46347;BME280;32057;47.830;19.046;2023-02-13T09:02:02;102377.88;;;2.24;100.00
46347;BME280;32057;47.830;19.046;2023-02-13T09:04:28;102379.84;;;2.36;98.45
46347;BME280;32057;47.830;19.046;2023-02-13T09:06:54;102367.66;;;2.44;98.20
46347;BME280;32057;47.830;19.046;2023-02-13T09:09:20;102375.13;;;2.51;98.51
46347;BME280;32057;47.830;19.046;2023-02-13T09:11:45;102372.31;;;2.58;98.20
46347;BME280;32057;47.830;19.046;2023-02-13T09:14:11;102374.66;;;2.66;97.28
46347;BME280;32057;47.830;19.046;2023-02-13T09:16:36;102377.09;;;2.74;94.66
46347;BME280;32057;47.830;19.046;2023-02-13T09:19:02;102372.31;;;2.79;93.14
46347;BME280;32057;47.830;19.046;2023-02-13T09:21:28;102375.41;;;2.85;93.09
46347;BME280;32057;47.830;19.046;2023-02-13T09:23:55;102372.59;;;2.92;94.75
46347;BME280;32057;47.830;19.046;2023-02-13T09:26:20;102369.88;;;3.01;94.04
46347;BME280;32057;47.830;19.046;2023-02-13T09:28:46;102381.09;;;3.12;93.36
46347;BME280;32057;47.830;19.046;2023-02-13T09:31:17;102377.22;;;3.17;92.21
46347;BME280;32057;47.830;19.046;2023-02-13T09:33:45;102382.84;;;3.23;91.79
46347;BME280;32057;47.830;19.046;2023-02-13T09:36:16;102381.22;;;3.24;89.14
46347;BME280;32057;47.830;19.046;2023-02-13T09:38:44;102383.50;;;3.21;87.23
46347;BME280;32057;47.830;19.046;2023-02-13T09:41:29;102377.97;;;3.26;89.22
46347;BME280;32057;47.830;19.046;2023-02-13T09:44:15;102378.22;;;3.29;88.20
46347;BME280;32057;47.830;19.046;2023-02-13T09:49:31;102386.44;;;3.46;88.07
46347;BME280;32057;47.830;19.046;2023-02-13T09:51:57;102382.06;;;3.45;88.90
46347;BME280;32057;47.830;19.046;2023-02-13T09:54:23;102380.66;;;3.48;87.95
46347;BME280;32057;47.830;19.046;2023-02-13T09:56:56;102377.41;;;3.51;87.62
46347;BME280;32057;47.830;19.046;2023-02-13T09:59:34;102372.75;;;3.57;88.72
46347;BME280;32057;47.830;19.046;2023-02-13T10:07:38;102365.72;;;3.87;89.75
46347;BME280;32057;47.830;19.046;2023-02-13T10:10:18;102363.09;;;3.97;87.89
46347;BME280;32057;47.830;19.046;2023-02-13T10:13:21;102355.56;;;4.10;87.47
46347;BME280;32057;47.830;19.046;2023-02-13T10:16:00;102347.50;;;4.06;86.90
46347;BME280;32057;47.830;19.046;2023-02-13T10:18:40;102337.47;;;4.21;86.88
46347;BME280;32057;47.830;19.046;2023-02-13T10:21:07;102347.72;;;4.31;85.62
46347;BME280;32057;47.830;19.046;2023-02-13T10:23:38;102343.59;;;4.33;85.60
46347;BME280;32057;47.830;19.046;2023-02-13T10:28:53;102333.06;;;4.30;84.78
46347;BME280;32057;47.830;19.046;2023-02-13T10:31:42;102322.41;;;4.37;85.83
46347;BME280;32057;47.830;19.046;2023-02-13T10:34:14;102321.72;;;4.28;84.39
46347;BME280;32057;47.830;19.046;2023-02-13T10:36:44;102316.50;;;4.38;84.28
46347;BME280;32057;47.830;19.046;2023-02-13T10:42:07;102317.53;;;4.40;83.65
46347;BME280;32057;47.830;19.046;2023-02-13T10:53:38;102295.06;;;4.73;84.08
46347;BME280;32057;47.830;19.046;2023-02-13T11:01:36;102287.72;;;4.89;82.69
46347;BME280;32057;47.830;19.046;2023-02-13T11:04:12;102280.53;;;4.97;81.38
46347;BME280;32057;47.830;19.046;2023-02-13T11:06:49;102282.38;;;5.10;82.16
46347;BME280;32057;47.830;19.046;2023-02-13T11:09:15;102269.47;;;5.22;82.18
46347;BME280;32057;47.830;19.046;2023-02-13T11:11:41;102263.19;;;5.18;80.47
46347;BME280;32057;47.830;19.046;2023-02-13T11:14:22;102259.47;;;5.26;80.60
46347;BME280;32057;47.830;19.046;2023-02-13T11:21:47;102249.34;;;5.41;78.59
46347;BME280;32057;47.830;19.046;2023-02-13T11:24:25;102256.56;;;5.45;79.25
46347;BME280;32057;47.830;19.046;2023-02-13T11:27:03;102241.56;;;5.53;80.27
46347;BME280;32057;47.830;19.046;2023-02-13T11:29:34;102234.50;;;5.62;80.15
46347;BME280;32057;47.830;19.046;2023-02-13T11:34:31;102230.69;;;5.57;79.91
46347;BME280;32057;47.830;19.046;2023-02-13T11:39:42;102229.63;;;5.78;78.27
46347;BME280;32057;47.830;19.046;2023-02-13T11:42:16;102225.69;;;5.84;77.61
46347;BME280;32057;47.830;19.046;2023-02-13T11:44:49;102224.53;;;5.92;77.45
46347;BME280;32057;47.830;19.046;2023-02-13T11:47:29;102224.88;;;5.96;77.52
46347;BME280;32057;47.830;19.046;2023-02-13T11:49:56;102222.63;;;6.01;78.19
46347;BME280;32057;47.830;19.046;2023-02-13T11:52:27;102219.53;;;6.07;78.92
46347;BME280;32057;47.830;19.046;2023-02-13T11:55:38;102224.25;;;6.12;79.76
46347;BME280;32057;47.830;19.046;2023-02-13T11:57:55;102217.13;;;6.22;77.32
46347;BME280;32057;47.830;19.046;2023-02-13T12:02:49;102210.63;;;6.40;77.28
46347;BME280;32057;47.830;19.046;2023-02-13T12:05:26;102202.91;;;6.53;78.73
46347;BME280;32057;47.830;19.046;2023-02-13T12:07:54;102204.09;;;6.58;77.19
46347;BME280;32057;47.830;19.046;2023-02-13T12:10:29;102205.78;;;6.58;77.61
46347;BME280;32057;47.830;19.046;2023-02-13T12:13:20;102195.13;;;6.67;77.84
46347;BME280;32057;47.830;19.046;2023-02-13T12:15:56;102174.94;;;6.74;78.46
46347;BME280;32057;47.830;19.046;2023-02-13T12:18:33;102172.78;;;7.07;78.41
46347;BME280;32057;47.830;19.046;2023-02-13T12:26:52;102168.25;;;7.18;76.29
46347;BME280;32057;47.830;19.046;2023-02-13T12:32:19;102155.31;;;7.05;77.29
46347;BME280;32057;47.830;19.046;2023-02-13T12:46:20;102152.94;;;7.08;76.62
46347;BME280;32057;47.830;19.046;2023-02-13T13:03:38;102134.00;;;7.22;77.91
46347;BME280;32057;47.830;19.046;2023-02-13T13:06:30;102136.56;;;7.35;77.54
46347;BME280;32057;47.830;19.046;2023-02-13T13:12:07;102129.09;;;7.27;78.09
46347;BME280;32057;47.830;19.046;2023-02-13T13:22:49;102125.22;;;7.33;78.01
46347;BME280;32057;47.830;19.046;2023-02-13T13:25:30;102121.31;;;7.40;78.65
46347;BME280;32057;47.830;19.046;2023-02-13T13:31:00;102117.50;;;7.48;76.13
46347;BME280;32057;47.830;19.046;2023-02-13T13:33:26;102115.63;;;7.46;76.73
46347;BME280;32057;47.830;19.046;2023-02-13T13:36:43;102119.97;;;7.47;76.91
46347;BME280;32057;47.830;19.046;2023-02-13T13:46:52;102105.63;;;7.52;76.64
46347;BME280;32057;47.830;19.046;2023-02-13T13:52:27;102103.84;;;7.51;76.56
46347;BME280;32057;47.830;19.046;2023-02-13T13:54:55;102106.81;;;7.57;76.98
46347;BME280;32057;47.830;19.046;2023-02-13T14:07:39;102109.56;;;7.45;75.19
46347;BME280;32057;47.830;19.046;2023-02-13T14:31:31;102116.25;;;7.28;77.70
46347;BME280;32057;47.830;19.046;2023-02-13T14:36:37;102110.47;;;7.32;78.30
46347;BME280;32057;47.830;19.046;2023-02-13T14:39:05;102121.03;;;7.35;78.55
46347;BME280;32057;47.830;19.046;2023-02-13T14:44:21;102116.47;;;7.31;77.75
46347;BME280;32057;47.830;19.046;2023-02-13T14:46:49;102110.69;;;7.22;78.39
46347;BME280;32057;47.830;19.046;2023-02-13T14:49:19;102113.00;;;7.17;78.75
46347;BME280;32057;47.830;19.046;2023-02-13T14:51:55;102110.66;;;7.07;79.46
46347;BME280;32057;47.830;19.046;2023-02-13T14:54:35;102110.25;;;7.01;80.00
46347;BME280;32057;47.830;19.046;2023-02-13T14:57:22;102109.56;;;7.04;80.24
46347;BME280;32057;47.830;19.046;2023-02-13T14:59:53;102107.56;;;7.00;80.71
46347;BME280;32057;47.830;19.046;2023-02-13T15:02:29;102111.44;;;6.93;81.30
46347;BME280;32057;47.830;19.046;2023-02-13T15:05:00;102117.22;;;6.89;82.02
46347;BME280;32057;47.830;19.046;2023-02-13T15:07:36;102116.03;;;6.84;82.24
46347;BME280;32057;47.830;19.046;2023-02-13T15:10:05;102117.53;;;6.80;81.58
46347;BME280;32057;47.830;19.046;2023-02-13T15:12:33;102128.69;;;6.79;81.61
46347;BME280;32057;47.830;19.046;2023-02-13T15:15:00;102137.94;;;6.75;82.18
46347;BME280;32057;47.830;19.046;2023-02-13T15:17:32;102133.25;;;6.70;82.32
46347;BME280;32057;47.830;19.046;2023-02-13T15:20:16;102133.25;;;6.56;82.44
46347;BME280;32057;47.830;19.046;2023-02-13T15:22:46;102131.47;;;6.42;83.26
46347;BME280;32057;47.830;19.046;2023-02-13T15:25:34;102133.81;;;6.26;84.56
46347;BME280;32057;47.830;19.046;2023-02-13T15:28:02;102128.66;;;6.26;84.38
46347;BME280;32057;47.830;19.046;2023-02-13T15:30:36;102129.34;;;6.23;84.35
46347;BME280;32057;47.830;19.046;2023-02-13T15:33:03;102132.19;;;6.14;84.97
46347;BME280;32057;47.830;19.046;2023-02-13T15:35:31;102122.25;;;6.07;85.58
46347;BME280;32057;47.830;19.046;2023-02-13T15:37:58;102123.22;;;5.96;86.29
46347;BME280;32057;47.830;19.046;2023-02-13T15:40:30;102125.59;;;5.81;86.97
46347;BME280;32057;47.830;19.046;2023-02-13T15:42:57;102123.41;;;5.74;87.42
46347;BME280;32057;47.830;19.046;2023-02-13T15:45:25;102123.09;;;5.69;87.92